Time;durP1;ratioP1;P1;durP2;ratioP2;P2;SDS_P1;SDS_P2;PMS_P1;PMS_P2;Temp;Humidity;BMP_temperature;BMP_pressure;BME280_temperature;BME280_humidity;BME280_pressure;Samples;Min_cycle;Max_cycle;Signal;HPM_P1;HPM_P2
2021/12/27 00:00:42;;;;;;;3.50;2.45;;;16.90;47.70;;;;;;5049093;28;45192;-78
2021/12/27 00:03:10;;;;;;;5.13;2.65;;;16.90;47.80;;;;;;5052014;28;44855;-78
2021/12/27 00:05:39;;;;;;;2.92;2.05;;;16.90;47.70;;;;;;5051006;28;47633;-77
2021/12/27 00:08:07;;;;;;;3.00;2.30;;;16.90;47.80;;;;;;5033597;28;45214;-77
2021/12/27 00:10:34;;;;;;;2.65;1.95;;;16.90;48.90;;;;;;5031802;28;44622;-78
2021/12/27 00:13:05;;;;;;;4.07;2.38;;;16.90;47.80;;;;;;5048127;28;44813;-77
2021/12/27 00:15:32;;;;;;;3.05;2.20;;;16.90;47.80;;;;;;5049124;28;47267;-77
2021/12/27 00:17:59;;;;;;;3.53;2.33;;;16.90;47.90;;;;;;5052650;28;44733;-78
2021/12/27 00:20:27;;;;;;;2.42;1.90;;;17.00;47.90;;;;;;5050148;28;44664;-77
2021/12/27 00:22:55;;;;;;;3.08;2.30;;;16.90;47.80;;;;;;5043326;28;44677;-78
2021/12/27 00:25:23;;;;;;;2.33;1.83;;;16.90;47.90;;;;;;5050852;28;45181;-78
2021/12/27 00:27:51;;;;;;;2.80;1.80;;;16.90;47.80;;;;;;5048157;28;45106;-78
2021/12/27 00:30:21;;;;;;;3.10;2.20;;;16.90;47.80;;;;;;5048960;28;44846;-78
2021/12/27 00:32:48;;;;;;;3.15;1.90;;;16.90;47.70;;;;;;5041869;28;44688;-78
2021/12/27 00:35:18;;;;;;;2.55;2.03;;;16.90;47.90;;;;;;5049589;28;46564;-78
2021/12/27 00:37:47;;;;;;;3.22;2.05;;;16.90;47.70;;;;;;5044640;28;45296;-78
2021/12/27 00:40:16;;;;;;;2.60;2.13;;;16.90;47.90;;;;;;5035768;28;44668;-78
2021/12/27 00:42:43;;;;;;;2.38;1.70;;;16.90;47.80;;;;;;5041776;28;44738;-78
2021/12/27 00:45:10;;;;;;;2.53;1.60;;;16.90;47.70;;;;;;5052967;28;45410;-78
2021/12/27 00:47:39;;;;;;;2.00;1.60;;;16.90;47.80;;;;;;5050253;28;44784;-78
2021/12/27 00:50:07;;;;;;;3.17;2.20;;;16.90;48.00;;;;;;5041760;28;44999;-78
2021/12/27 00:52:35;;;;;;;2.53;1.88;;;16.90;47.80;;;;;;5046918;28;44776;-77
2021/12/27 00:55:04;;;;;;;2.55;2.00;;;16.90;47.80;;;;;;5050783;28;47793;-77
2021/12/27 00:57:32;;;;;;;3.38;1.83;;;16.90;47.90;;;;;;5051123;28;44721;-77
2021/12/27 00:59:59;;;;;;;2.53;2.00;;;16.90;48.90;;;;;;5051233;28;44621;-78
2021/12/27 01:02:27;;;;;;;3.35;2.25;;;16.90;49.00;;;;;;5036096;28;44944;-78
2021/12/27 01:04:56;;;;;;;2.63;2.05;;;16.90;48.80;;;;;;5051008;28;47113;-78
2021/12/27 01:07:23;;;;;;;3.50;2.22;;;16.90;48.60;;;;;;5049641;28;45473;-77
2021/12/27 01:10:04;;;;;;;3.30;1.98;;;16.90;48.50;;;;;;5048384;28;44656;-78
2021/12/27 01:12:35;;;;;;;2.30;1.63;;;16.90;48.40;;;;;;5041842;28;45053;-78
2021/12/27 01:15:21;;;;;;;2.17;1.80;;;17.00;48.40;;;;;;5049015;28;47623;-78
2021/12/27 01:17:51;;;;;;;3.08;1.90;;;17.00;48.30;;;;;;5049282;28;44706;-78
2021/12/27 01:20:23;;;;;;;3.22;2.17;;;17.00;48.20;;;;;;5051388;28;44581;-78
2021/12/27 01:22:50;;;;;;;2.60;2.05;;;17.00;48.00;;;;;;5050142;28;44739;-78
2021/12/27 01:25:17;;;;;;;3.60;1.90;;;16.90;48.10;;;;;;5050754;28;46381;-78
2021/12/27 01:27:44;;;;;;;2.67;1.85;;;16.90;48.10;;;;;;5050051;28;44846;-78
2021/12/27 01:30:15;;;;;;;2.33;1.90;;;16.90;48.10;;;;;;5051105;28;44620;-78
2021/12/27 01:32:47;;;;;;;3.28;2.30;;;16.90;48.10;;;;;;5036173;28;44835;-78
2021/12/27 01:35:15;;;;;;;3.17;1.98;;;16.90;48.10;;;;;;5051622;28;47268;-78
2021/12/27 01:37:49;;;;;;;3.28;1.90;;;16.90;48.10;;;;;;5035168;28;44610;-77
2021/12/27 01:40:16;;;;;;;2.92;2.08;;;16.90;48.10;;;;;;5046613;28;44979;-77
2021/12/27 01:43:05;;;;;;;2.00;1.80;;;16.90;48.10;;;;;;5045924;28;44909;-77
2021/12/27 01:45:33;;;;;;;2.30;2.03;;;16.90;48.20;;;;;;5041611;28;45206;-77
2021/12/27 01:48:02;;;;;;;2.08;1.80;;;16.90;48.20;;;;;;5050169;28;44946;-77
2021/12/27 01:50:29;;;;;;;2.13;1.65;;;16.90;48.20;;;;;;5046918;28;44996;-77
2021/12/27 01:52:58;;;;;;;2.88;2.20;;;16.90;48.20;;;;;;5042538;28;44972;-77
2021/12/27 01:55:25;;;;;;;2.45;1.92;;;16.90;48.20;;;;;;5036062;28;47636;-78
2021/12/27 01:57:53;;;;;;;2.63;1.83;;;16.90;48.10;;;;;;5045096;28;44661;-78
2021/12/27 02:00:21;;;;;;;2.25;1.75;;;17.00;48.20;;;;;;5049091;28;44598;-78
2021/12/27 02:02:48;;;;;;;2.58;2.15;;;17.00;48.20;;;;;;5044821;28;44838;-78
2021/12/27 02:05:16;;;;;;;2.08;1.80;;;17.00;48.20;;;;;;5042321;28;47696;-78
2021/12/27 02:07:44;;;;;;;3.45;1.90;;;17.00;48.20;;;;;;5042954;28;44789;-77
2021/12/27 02:10:16;;;;;;;3.08;2.13;;;17.00;48.20;;;;;;5040529;28;44939;-78
2021/12/27 02:12:44;;;;;;;3.28;2.20;;;16.90;48.10;;;;;;5050362;28;44735;-78
2021/12/27 02:15:12;;;;;;;3.10;1.98;;;16.90;48.20;;;;;;5041026;28;46563;-78
2021/12/27 02:17:41;;;;;;;1.88;1.67;;;16.90;48.20;;;;;;5049081;28;44945;-77
2021/12/27 02:20:11;;;;;;;2.35;1.90;;;16.90;48.20;;;;;;5049275;28;44809;-77
2021/12/27 02:22:40;;;;;;;3.53;2.28;;;16.90;48.30;;;;;;5046559;28;44727;-77
2021/12/27 02:25:08;;;;;;;2.63;1.80;;;16.90;48.30;;;;;;5043652;28;47383;-78
2021/12/27 02:27:36;;;;;;;2.03;1.83;;;16.90;48.30;;;;;;5050113;28;45128;-78
2021/12/27 02:30:07;;;;;;;2.03;1.60;;;16.90;48.30;;;;;;5049913;28;44661;-78
2021/12/27 02:32:34;;;;;;;2.92;2.13;;;16.90;48.30;;;;;;5048343;28;44684;-77
2021/12/27 02:35:01;;;;;;;2.08;1.55;;;16.90;48.30;;;;;;5049083;28;46369;-78
2021/12/27 02:37:29;;;;;;;2.55;2.00;;;16.90;48.30;;;;;;5041261;28;44758;-77
2021/12/27 02:39:56;;;;;;;1.65;1.45;;;17.00;48.40;;;;;;5029505;28;44700;-78
2021/12/27 02:42:24;;;;;;;2.42;1.80;;;17.00;48.30;;;;;;5041521;28;44743;-78
2021/12/27 02:44:51;;;;;;;2.42;1.80;;;17.00;48.40;;;;;;5049841;28;46708;-78
2021/12/27 02:47:17;;;;;;;2.67;1.73;;;17.00;48.30;;;;;;5038056;28;44656;-77
2021/12/27 02:49:44;;;;;;;2.78;1.95;;;17.00;48.20;;;;;;5046389;28;44657;-77
2021/12/27 02:52:11;;;;;;;1.98;1.60;;;17.00;48.20;;;;;;5053467;28;44914;-77
2021/12/27 02:54:43;;;;;;;2.30;1.80;;;17.00;48.30;;;;;;5049726;28;46732;-77
2021/12/27 02:57:10;;;;;;;2.05;1.67;;;16.90;48.30;;;;;;5045539;28;45621;-78
2021/12/27 02:59:38;;;;;;;2.55;1.90;;;16.90;48.30;;;;;;5051607;28;44664;-77
2021/12/27 03:02:05;;;;;;;2.00;1.55;;;16.90;48.40;;;;;;5052677;28;44923;-77
2021/12/27 03:04:36;;;;;;;2.42;1.80;;;16.90;48.30;;;;;;5052962;28;46410;-77
2021/12/27 03:07:03;;;;;;;2.20;1.80;;;16.90;48.30;;;;;;5051643;28;44914;-77
2021/12/27 03:09:31;;;;;;;2.80;1.98;;;16.90;48.40;;;;;;5049550;28;44925;-78
2021/12/27 03:12:01;;;;;;;1.83;1.50;;;16.90;49.60;;;;;;5044975;28;44954;-78
2021/12/27 03:14:28;;;;;;;2.08;1.67;;;16.90;48.30;;;;;;5041931;28;47350;-77
2021/12/27 03:16:55;;;;;;;2.60;1.90;;;16.90;48.40;;;;;;5034087;28;44856;-78
2021/12/27 03:19:22;;;;;;;2.13;1.60;;;16.90;48.30;;;;;;5046822;28;44727;-77
2021/12/27 03:21:51;;;;;;;2.15;1.70;;;16.90;48.20;;;;;;5052428;28;44743;-77
2021/12/27 03:24:18;;;;;;;2.20;1.65;;;17.00;48.40;;;;;;5042448;28;45853;-77
2021/12/27 03:26:45;;;;;;;2.28;1.60;;;17.00;48.30;;;;;;5038986;28;44560;-77
2021/12/27 03:29:14;;;;;;;2.45;1.88;;;17.00;48.40;;;;;;5047909;28;44634;-77
2021/12/27 03:31:42;;;;;;;2.85;1.98;;;17.00;48.40;;;;;;5040872;28;44923;-77
2021/12/27 03:34:09;;;;;;;2.63;1.67;;;17.00;48.30;;;;;;5037152;28;46780;-77
2021/12/27 03:36:39;;;;;;;2.17;1.65;;;17.00;48.30;;;;;;5052530;28;45036;-78
2021/12/27 03:39:08;;;;;;;3.88;2.00;;;17.00;48.40;;;;;;5048324;28;44668;-78
2021/12/27 03:41:35;;;;;;;2.20;1.65;;;17.00;48.30;;;;;;5041178;28;44750;-78
2021/12/27 03:44:02;;;;;;;2.03;1.50;;;16.90;48.30;;;;;;5039121;28;47310;-78
2021/12/27 03:46:31;;;;;;;1.83;1.60;;;17.00;48.40;;;;;;5052073;28;44622;-77
2021/12/27 03:48:58;;;;;;;2.05;1.52;;;16.90;48.30;;;;;;5051995;28;44961;-77
2021/12/27 03:51:25;;;;;;;2.25;1.73;;;16.90;48.40;;;;;;5050775;28;44843;-77
2021/12/27 03:53:54;;;;;;;2.35;1.80;;;16.90;48.50;;;;;;5047720;28;46280;-78
2021/12/27 03:56:23;;;;;;;2.42;1.80;;;16.90;48.40;;;;;;5046516;28;45070;-77
2021/12/27 03:58:57;;;;;;;1.88;1.65;;;16.90;48.40;;;;;;5051788;28;44957;-78
2021/12/27 04:01:26;;;;;;;2.08;1.63;;;16.90;48.50;;;;;;5045063;28;44746;-77
2021/12/27 04:03:56;;;;;;;1.40;1.23;;;16.90;48.50;;;;;;5061996;28;46618;-77
2021/12/27 04:06:25;;;;;;;2.15;1.33;;;16.90;48.50;;;;;;5042567;28;45354;-78
2021/12/27 04:08:51;;;;;;;2.17;1.60;;;17.00;48.50;;;;;;5049152;28;45536;-78
2021/12/27 04:11:18;;;;;;;1.90;1.70;;;17.00;48.50;;;;;;5051093;28;44847;-77
2021/12/27 04:13:45;;;;;;;2.00;1.38;;;17.00;48.60;;;;;;5051688;28;46371;-77
2021/12/27 04:16:13;;;;;;;2.35;1.52;;;17.00;48.50;;;;;;5040564;28;44799;-77
2021/12/27 04:18:40;;;;;;;2.50;1.85;;;17.00;48.50;;;;;;5049551;28;44828;-77
2021/12/27 04:21:08;;;;;;;1.65;1.42;;;17.00;48.50;;;;;;5052110;28;44933;-77
2021/12/27 04:23:35;;;;;;;3.40;2.05;;;17.00;48.50;;;;;;5038784;28;46706;-77
2021/12/27 04:26:02;;;;;;;2.00;1.67;;;17.00;48.50;;;;;;5032496;28;44765;-77
2021/12/27 04:28:29;;;;;;;1.65;1.50;;;16.90;48.60;;;;;;5037701;28;44992;-77
2021/12/27 04:30:56;;;;;;;1.85;1.52;;;17.00;48.60;;;;;;5047445;28;44781;-77
2021/12/27 04:33:23;;;;;;;2.38;1.73;;;16.90;48.50;;;;;;5045548;28;46593;-78
2021/12/27 04:35:50;;;;;;;1.90;1.60;;;17.00;48.50;;;;;;5040647;28;44574;-78
2021/12/27 04:38:18;;;;;;;2.03;1.70;;;17.00;48.70;;;;;;5041276;28;44958;-78
2021/12/27 04:40:48;;;;;;;1.55;1.40;;;17.00;48.60;;;;;;5049798;28;44763;-77
2021/12/27 04:43:18;;;;;;;1.40;1.17;;;16.90;48.60;;;;;;5039058;28;47227;-77
2021/12/27 04:45:47;;;;;;;1.67;1.35;;;16.90;48.60;;;;;;5032016;28;44823;-77
2021/12/27 04:48:14;;;;;;;2.47;1.73;;;17.00;48.70;;;;;;5050213;28;44803;-77
2021/12/27 04:50:41;;;;;;;1.92;1.42;;;16.70;48.50;;;;;;5041461;28;45356;-78
2021/12/27 04:53:08;;;;;;;2.10;1.40;;;17.00;48.60;;;;;;5051114;28;47093;-78
2021/12/27 04:55:37;;;;;;;2.17;1.60;;;17.00;48.80;;;;;;5051415;28;44994;-77
2021/12/27 04:58:07;;;;;;;3.58;1.52;;;17.00;48.80;;;;;;5050746;28;45029;-77
2021/12/27 05:00:34;;;;;;;2.25;1.60;;;17.00;48.70;;;;;;5039822;28;44875;-77
2021/12/27 05:03:01;;;;;;;2.33;1.60;;;17.00;48.70;;;;;;5044889;28;46419;-78
2021/12/27 05:05:30;;;;;;;1.92;1.60;;;17.00;48.70;;;;;;5044522;28;46446;-78
2021/12/27 05:07:58;;;;;;;2.13;1.52;;;16.90;48.60;;;;;;5040808;28;44736;-77
2021/12/27 05:10:25;;;;;;;2.25;1.63;;;17.00;48.70;;;;;;5050412;28;44815;-77
2021/12/27 05:12:54;;;;;;;2.50;1.58;;;17.00;48.60;;;;;;5050353;28;45524;-77
2021/12/27 05:18:04;;;;;;;1.88;1.48;;;17.00;48.80;;;;;;5025488;22;67950;-77
2021/12/27 05:20:32;;;;;;;2.35;1.63;;;16.90;48.80;;;;;;5001261;28;45242;-77
2021/12/27 05:23:00;;;;;;;1.77;1.35;;;17.00;48.80;;;;;;5034596;28;45261;-78
2021/12/27 05:25:27;;;;;;;2.10;1.63;;;17.00;48.80;;;;;;5048628;28;45689;-77
2021/12/27 05:27:56;;;;;;;1.90;1.33;;;17.00;48.80;;;;;;5048897;28;45277;-77
2021/12/27 05:30:22;;;;;;;1.60;1.35;;;16.90;48.70;;;;;;5048755;28;45394;-78
2021/12/27 05:32:50;;;;;;;1.65;1.20;;;17.00;48.80;;;;;;5031197;28;47407;-78
2021/12/27 05:35:18;;;;;;;2.22;1.48;;;17.00;48.80;;;;;;5032198;28;45251;-78
2021/12/27 05:37:46;;;;;;;2.90;1.63;;;17.00;48.80;;;;;;5034653;28;45661;-77
2021/12/27 05:40:15;;;;;;;1.80;1.48;;;17.00;48.80;;;;;;5021256;28;45447;-77
2021/12/27 05:42:42;;;;;;;2.05;1.63;;;17.00;48.80;;;;;;5018969;28;47058;-78
2021/12/27 05:45:11;;;;;;;1.60;1.20;;;17.00;48.80;;;;;;5027821;28;45261;-78
2021/12/27 05:47:38;;;;;;;2.00;1.40;;;17.00;49.60;;;;;;5026317;28;45313;-78
2021/12/27 05:50:07;;;;;;;1.70;1.20;;;17.00;51.20;;;;;;5028249;28;45515;-78
2021/12/27 05:52:35;;;;;;;1.50;1.27;;;17.00;51.20;;;;;;5021589;28;47896;-77
2021/12/27 05:55:02;;;;;;;1.50;1.38;;;17.00;51.20;;;;;;5025185;28;45452;-78
2021/12/27 05:57:29;;;;;;;2.13;1.60;;;17.10;50.90;;;;;;5028584;28;45294;-78
2021/12/27 05:59:56;;;;;;;1.35;1.15;;;17.00;50.20;;;;;;5028356;28;45539;-78
2021/12/27 06:02:24;;;;;;;1.77;1.20;;;17.00;50.40;;;;;;5026155;28;47331;-78
2021/12/27 06:04:51;;;;;;;1.75;1.33;;;17.00;51.20;;;;;;5027510;28;45464;-78
2021/12/27 06:07:19;;;;;;;1.90;1.35;;;17.00;51.20;;;;;;5026912;28;45273;-77
2021/12/27 06:09:45;;;;;;;1.83;1.08;;;17.00;51.20;;;;;;5028595;28;45186;-77
2021/12/27 06:12:12;;;;;;;1.95;1.50;;;17.00;51.80;;;;;;5026769;28;47441;-78
2021/12/27 06:14:40;;;;;;;1.73;1.42;;;17.00;52.10;;;;;;5027123;28;45728;-78
2021/12/27 06:17:07;;;;;;;1.67;1.38;;;17.00;52.30;;;;;;5026393;28;45280;-78
2021/12/27 06:19:35;;;;;;;2.13;1.73;;;17.00;52.30;;;;;;5027248;28;45344;-79
2021/12/27 06:22:04;;;;;;;1.73;1.40;;;17.00;51.20;;;;;;5027412;28;45502;-79
2021/12/27 06:24:31;;;;;;;1.83;1.52;;;16.90;51.10;;;;;;5046391;28;45355;-79
2021/12/27 06:26:58;;;;;;;1.80;1.50;;;16.90;51.10;;;;;;5045857;28;45290;-79
2021/12/27 06:29:26;;;;;;;2.45;1.70;;;16.90;50.50;;;;;;5024105;28;45499;-79
2021/12/27 06:31:52;;;;;;;2.60;1.50;;;16.90;50.10;;;;;;5028249;28;45248;-79
2021/12/27 06:34:19;;;;;;;2.08;1.33;;;16.90;50.10;;;;;;5027315;28;45138;-78
2021/12/27 06:36:48;;;;;;;1.90;1.20;;;16.90;51.10;;;;;;5026840;28;45273;-78
2021/12/27 06:39:15;;;;;;;1.63;1.33;;;16.80;51.80;;;;;;5023483;28;45411;-78
2021/12/27 06:41:42;;;;;;;2.45;1.30;;;16.80;52.80;;;;;;5027286;28;47105;-79
2021/12/27 06:44:10;;;;;;;1.52;1.27;;;16.80;52.90;;;;;;5027388;28;45373;-79
2021/12/27 06:46:37;;;;;;;2.25;1.45;;;16.80;52.30;;;;;;5026615;28;45288;-79
2021/12/27 06:49:06;;;;;;;2.92;1.65;;;16.80;51.20;;;;;;5025889;28;45281;-78
2021/12/27 06:51:33;;;;;;;1.95;1.30;;;16.80;51.10;;;;;;5010547;28;46424;-78
2021/12/27 06:54:02;;;;;;;2.28;1.40;;;16.80;51.10;;;;;;5027542;28;45340;-78
2021/12/27 06:56:30;;;;;;;2.00;1.30;;;16.80;51.50;;;;;;5027800;28;45329;-79
2021/12/27 06:58:58;;;;;;;1.58;1.23;;;16.80;52.10;;;;;;5027732;28;45337;-77
2021/12/27 07:01:26;;;;;;;1.83;1.23;;;16.90;52.60;;;;;;5024367;28;47420;-78
2021/12/27 07:03:53;;;;;;;1.90;1.35;;;16.90;52.70;;;;;;5026237;28;45367;-78
2021/12/27 07:06:22;;;;;;;2.10;1.25;;;16.90;52.10;;;;;;5028196;28;45282;-79
2021/12/27 07:08:49;;;;;;;1.55;1.20;;;16.90;51.30;;;;;;5027690;28;45479;-78
2021/12/27 07:11:18;;;;;;;1.83;1.30;;;17.00;51.30;;;;;;5024514;28;47035;-78
2021/12/27 07:13:44;;;;;;;2.00;1.30;;;17.00;51.20;;;;;;5026856;28;45292;-77
2021/12/27 07:16:12;;;;;;;1.67;1.35;;;17.00;51.20;;;;;;5022400;28;45419;-78
2021/12/27 07:18:38;;;;;;;1.80;1.30;;;16.90;52.00;;;;;;5027427;28;45265;-78
2021/12/27 07:21:06;;;;;;;2.08;1.27;;;17.00;52.80;;;;;;5020191;28;47869;-78
2021/12/27 07:23:33;;;;;;;1.67;1.38;;;17.00;53.10;;;;;;5025665;28;45458;-77
2021/12/27 07:26:01;;;;;;;1.42;1.05;;;17.00;52.90;;;;;;5000362;28;45751;-77
2021/12/27 07:28:29;;;;;;;2.97;1.67;;;17.00;53.20;;;;;;5023923;28;45566;-77
2021/12/27 07:30:56;;;;;;;2.00;1.30;;;17.00;53.30;;;;;;5025697;28;48141;-76
2021/12/27 07:33:23;;;;;;;2.42;1.55;;;17.00;53.30;;;;;;5022283;28;45980;-77
2021/12/27 07:35:51;;;;;;;1.77;1.50;;;17.00;53.40;;;;;;5027457;28;45503;-79
2021/12/27 07:38:18;;;;;;;2.33;1.67;;;17.10;53.60;;;;;;5022784;28;45772;-78
2021/12/27 07:40:46;;;;;;;2.25;1.65;;;17.10;53.60;;;;;;5024553;28;48241;-77
2021/12/27 07:43:13;;;;;;;1.60;1.30;;;17.10;53.50;;;;;;5030138;28;45239;-77
2021/12/27 07:45:41;;;;;;;1.70;1.40;;;17.10;53.60;;;;;;5045068;28;45238;-77
2021/12/27 07:48:09;;;;;;;2.00;1.40;;;17.10;53.90;;;;;;5029595;28;45549;-77
2021/12/27 07:50:36;;;;;;;1.88;1.45;;;17.10;54.00;;;;;;5029449;28;46537;-77
2021/12/27 07:53:05;;;;;;;1.95;1.50;;;17.10;54.40;;;;;;5029581;28;45274;-77
2021/12/27 07:55:32;;;;;;;1.40;1.30;;;17.10;54.40;;;;;;5029869;28;45262;-77
2021/12/27 07:58:00;;;;;;;1.67;1.48;;;17.10;54.20;;;;;;5029149;28;45270;-78
2021/12/27 08:00:28;;;;;;;2.33;1.40;;;17.10;54.50;;;;;;5031956;28;48416;-76
2021/12/27 08:02:57;;;;;;;1.83;1.50;;;17.10;54.40;;;;;;5031485;28;45203;-79
2021/12/27 08:05:24;;;;;;;1.50;1.33;;;17.20;54.20;;;;;;5031063;28;45338;-77
2021/12/27 08:07:51;;;;;;;1.60;1.27;;;17.20;53.90;;;;;;5024966;28;45412;-77
2021/12/27 08:10:18;;;;;;;2.10;1.48;;;17.20;53.90;;;;;;5026944;28;45646;-77
2021/12/27 08:12:46;;;;;;;1.73;1.40;;;17.20;53.70;;;;;;5026349;28;45494;-77
2021/12/27 08:15:13;;;;;;;1.52;1.10;;;17.20;53.90;;;;;;5023866;28;45174;-77
2021/12/27 08:17:41;;;;;;;1.15;1.00;;;17.20;53.90;;;;;;5023947;28;45709;-78
2021/12/27 08:20:11;;;;;;;2.05;1.30;;;17.20;55.10;;;;;;5023324;28;45305;-77
2021/12/27 08:22:38;;;;;;;1.92;1.40;;;17.20;54.10;;;;;;5025299;28;45356;-77
2021/12/27 08:25:07;;;;;;;1.42;1.25;;;17.20;54.60;;;;;;5022326;28;45391;-77
2021/12/27 08:27:35;;;;;;;1.13;1.02;;;17.20;54.00;;;;;;5027239;28;45320;-77
2021/12/27 08:30:04;;;;;;;1.63;1.40;;;17.20;53.90;;;;;;5019510;28;45474;-77
2021/12/27 08:32:32;;;;;;;1.73;1.27;;;17.10;54.00;;;;;;5026021;28;45870;-77
2021/12/27 08:35:01;;;;;;;1.83;1.00;;;17.20;54.00;;;;;;5027663;28;45456;-77
2021/12/27 08:37:29;;;;;;;1.50;1.30;;;17.20;54.10;;;;;;5026798;28;45470;-77
2021/12/27 08:39:57;;;;;;;1.75;1.27;;;17.20;54.20;;;;;;5026642;28;47415;-78
2021/12/27 08:42:25;;;;;;;9.73;1.60;;;17.20;54.40;;;;;;5026418;28;45505;-78
2021/12/27 08:44:53;;;;;;;3.35;1.30;;;17.20;54.40;;;;;;5022508;28;45250;-77
2021/12/27 08:47:23;;;;;;;25.30;2.38;;;17.20;53.90;;;;;;5023994;28;45449;-77
2021/12/27 08:49:50;;;;;;;18.23;1.48;;;17.30;53.90;;;;;;5025210;28;48538;-77
2021/12/27 08:52:17;;;;;;;2.33;1.27;;;17.20;54.10;;;;;;5025697;28;45347;-77
2021/12/27 08:54:46;;;;;;;2.78;1.40;;;17.20;54.30;;;;;;5022211;28;45374;-77
2021/12/27 08:57:13;;;;;;;2.88;1.40;;;17.20;54.60;;;;;;5025225;28;45440;-77
2021/12/27 08:59:41;;;;;;;3.10;1.42;;;17.10;54.80;;;;;;5027916;28;47149;-77
2021/12/27 09:02:07;;;;;;;2.65;1.48;;;17.10;55.10;;;;;;5031401;28;45418;-77
2021/12/27 09:04:34;;;;;;;2.78;1.48;;;17.10;55.20;;;;;;5028515;28;45321;-77
2021/12/27 09:07:01;;;;;;;2.13;1.50;;;17.10;55.30;;;;;;5028214;28;45375;-77
2021/12/27 09:09:28;;;;;;;2.20;1.35;;;17.10;55.30;;;;;;5035072;28;47269;-77
2021/12/27 09:11:56;;;;;;;1.83;1.30;;;17.00;55.20;;;;;;5042634;28;45336;-77
2021/12/27 09:14:23;;;;;;;2.10;1.20;;;17.10;55.30;;;;;;5027865;28;45249;-77
2021/12/27 09:16:50;;;;;;;2.25;1.30;;;17.10;55.50;;;;;;5026504;28;45196;-77
2021/12/27 09:19:17;;;;;;;1.98;1.23;;;17.10;55.40;;;;;;5027937;28;47440;-77
2021/12/27 09:21:44;;;;;;;2.28;1.63;;;17.10;55.50;;;;;;5027723;28;45327;-77
2021/12/27 09:24:11;;;;;;;2.50;1.40;;;17.10;55.40;;;;;;5027034;28;46772;-77
2021/12/27 09:26:39;;;;;;;1.98;1.23;;;17.10;55.50;;;;;;5028031;28;45308;-77
2021/12/27 09:29:08;;;;;;;4.63;1.02;;;17.20;55.60;;;;;;5039838;28;46161;-77
2021/12/27 09:31:35;;;;;;;2.50;1.45;;;17.20;55.60;;;;;;5028294;28;45285;-77
2021/12/27 09:34:03;;;;;;;3.08;1.42;;;17.10;55.60;;;;;;5032041;28;45335;-77
2021/12/27 09:36:31;;;;;;;2.25;1.08;;;17.20;55.70;;;;;;5028064;28;45193;-77
2021/12/27 09:38:58;;;;;;;2.33;1.55;;;17.20;55.50;;;;;;5028671;28;46106;-77
2021/12/27 09:41:26;;;;;;;1.38;1.02;;;17.10;55.70;;;;;;5026689;28;45442;-77
2021/12/27 09:43:55;;;;;;;1.88;1.27;;;17.10;55.80;;;;;;5028447;28;45197;-77
2021/12/27 09:46:25;;;;;;;1.75;1.30;;;17.10;55.90;;;;;;5027831;28;45167;-77
2021/12/27 09:48:54;;;;;;;1.95;1.27;;;17.10;55.90;;;;;;5027309;28;48228;-77
2021/12/27 09:51:21;;;;;;;1.60;1.20;;;17.10;55.90;;;;;;5026501;28;45679;-77
2021/12/27 09:53:48;;;;;;;1.70;1.20;;;17.10;55.90;;;;;;5027987;28;45308;-77
2021/12/27 09:56:15;;;;;;;1.25;0.98;;;17.10;55.90;;;;;;5022149;28;45311;-77
2021/12/27 09:58:42;;;;;;;1.52;1.13;;;17.10;55.90;;;;;;5023217;28;46661;-77
2021/12/27 10:01:10;;;;;;;2.00;1.40;;;17.10;55.90;;;;;;5022465;28;45346;-76
2021/12/27 10:03:48;;;;;;;3.30;1.67;;;17.20;56.10;;;;;;5027781;28;45266;-76
2021/12/27 10:06:16;;;;;;;3.15;1.33;;;17.20;56.00;;;;;;5018509;28;45333;-76
2021/12/27 10:08:45;;;;;;;1.30;1.10;;;17.20;56.10;;;;;;5025970;28;46588;-77
2021/12/27 10:11:21;;;;;;;1.98;1.30;;;17.20;56.20;;;;;;5023103;28;45943;-78
2021/12/27 10:13:59;;;;;;;1.90;1.35;;;17.20;56.30;;;;;;5018886;28;45286;-77
2021/12/27 10:16:26;;;;;;;1.75;1.10;;;17.10;56.20;;;;;;5026888;28;45727;-77
2021/12/27 10:18:56;;;;;;;1.33;1.00;;;17.20;56.10;;;;;;5027412;28;46318;-77
2021/12/27 10:21:24;;;;;;;1.60;1.13;;;17.20;56.10;;;;;;5023485;28;45300;-76
2021/12/27 10:24:05;;;;;;;2.25;1.23;;;17.20;56.10;;;;;;5027987;28;45245;-76
2021/12/27 10:26:33;;;;;;;2.08;1.00;;;17.20;56.20;;;;;;5020675;28;45382;-76
2021/12/27 10:29:15;;;;;;;2.00;1.15;;;17.20;56.20;;;;;;5027487;28;45975;-76
2021/12/27 10:31:57;;;;;;;1.48;1.27;;;17.20;56.30;;;;;;5029348;28;45297;-77
2021/12/27 10:34:32;;;;;;;1.77;1.30;;;17.20;56.20;;;;;;5025117;28;45226;-76
2021/12/27 10:37:13;;;;;;;2.00;1.20;;;17.20;56.30;;;;;;5029349;28;45305;-76
2021/12/27 10:39:48;;;;;;;1.77;1.17;;;17.20;56.40;;;;;;5019823;28;47969;-76
2021/12/27 10:42:17;;;;;;;1.63;0.98;;;17.20;56.30;;;;;;5027290;28;45278;-76
2021/12/27 10:44:44;;;;;;;1.25;1.02;;;17.30;56.50;;;;;;5026582;28;45278;-76
2021/12/27 10:47:29;;;;;;;1.88;1.30;;;17.30;56.40;;;;;;5029833;28;45360;-77
2021/12/27 10:50:03;;;;;;;3.78;1.00;;;17.30;56.50;;;;;;5021909;28;47427;-77
2021/12/27 10:52:44;;;;;;;1.30;1.20;;;17.30;56.40;;;;;;5024789;28;46214;-76
2021/12/27 10:55:12;;;;;;;1.70;1.08;;;17.00;56.00;;;;;;5027571;28;45273;-77
2021/12/27 10:57:38;;;;;;;1.35;1.23;;;17.40;56.20;;;;;;5026352;28;45498;-76
2021/12/27 11:00:24;;;;;;;2.28;1.30;;;17.40;56.10;;;;;;5026770;28;47836;-78
2021/12/27 11:02:52;;;;;;;1.63;1.10;;;17.40;57.10;;;;;;5026776;28;45594;-78
2021/12/27 11:05:23;;;;;;;1.20;0.90;;;17.40;55.90;;;;;;5015573;28;45349;-78
2021/12/27 11:07:51;;;;;;;1.88;1.20;;;17.40;56.30;;;;;;5028221;28;45170;-78
2021/12/27 11:10:20;;;;;;;2.95;1.10;;;17.30;56.20;;;;;;5028934;28;48229;-78
2021/12/27 11:12:49;;;;;;;1.83;1.02;;;17.30;56.40;;;;;;5026127;28;45411;-77
2021/12/27 11:15:17;;;;;;;2.05;1.10;;;17.30;56.60;;;;;;5017260;28;45277;-78
2021/12/27 11:17:45;;;;;;;2.88;1.13;;;17.30;56.90;;;;;;5028958;28;45602;-78
2021/12/27 11:20:14;;;;;;;1.58;1.10;;;17.20;57.10;;;;;;5028677;28;48633;-76
2021/12/27 11:22:45;;;;;;;1.08;0.90;;;17.20;57.30;;;;;;5031831;28;45298;-77
2021/12/27 11:25:22;;;;;;;1.80;1.15;;;17.20;57.40;;;;;;5039006;28;45330;-76
2021/12/27 11:27:50;;;;;;;1.63;1.10;;;17.20;57.40;;;;;;5030006;28;45510;-77
2021/12/27 11:30:23;;;;;;;1.98;1.10;;;17.20;57.60;;;;;;5029256;28;47340;-77
2021/12/27 11:33:09;;;;;;;1.60;1.08;;;17.20;57.80;;;;;;5026979;28;45493;-77
2021/12/27 11:35:39;;;;;;;1.80;1.10;;;17.20;57.80;;;;;;5024540;28;45301;-76
2021/12/27 11:38:07;;;;;;;1.40;1.10;;;17.20;57.80;;;;;;5022257;28;45349;-77
2021/12/27 11:40:44;;;;;;;2.55;1.40;;;17.20;57.70;;;;;;5025320;28;46679;-77
2021/12/27 11:43:11;;;;;;;2.58;1.10;;;17.30;57.50;;;;;;5031106;28;45224;-76
2021/12/27 11:45:40;;;;;;;4.05;1.33;;;17.30;57.30;;;;;;5029178;28;45331;-77
2021/12/27 11:48:09;;;;;;;1.25;0.98;;;17.30;57.10;;;;;;5023605;28;45458;-76
2021/12/27 11:51:07;;;;;;;2.15;1.00;;;17.30;57.20;;;;;;5026042;28;46329;-77
2021/12/27 11:53:38;;;;;;;1.60;1.10;;;17.30;57.40;;;;;;5025204;28;45233;-76
2021/12/27 11:56:10;;;;;;;1.45;0.90;;;17.30;57.40;;;;;;5030123;28;45285;-78
2021/12/27 11:58:39;;;;;;;2.88;1.05;;;17.20;57.40;;;;;;5028695;28;45359;-78
2021/12/27 12:01:27;;;;;;;7.15;1.30;;;17.30;57.60;;;;;;5033313;28;48226;-82
2021/12/27 12:03:57;;;;;;;4.63;1.15;;;17.40;58.90;;;;;;5023558;28;45325;-76
2021/12/27 12:06:41;;;;;;;2.25;1.27;;;17.40;59.60;;;;;;5030090;28;45536;-76
2021/12/27 12:09:16;;;;;;;4.00;1.33;;;17.50;61.90;;;;;;5027130;28;45447;-76
2021/12/27 12:11:55;;;;;;;40.25;3.35;;;17.70;61.90;;;;;;5029096;28;48416;-80
2021/12/27 12:14:33;;;;;;;26.85;2.92;;;17.90;62.20;;;;;;5027834;28;46247;-76
2021/12/27 12:17:02;;;;;;;21.17;2.00;;;18.10;61.70;;;;;;5023154;28;45354;-75
2021/12/27 12:19:47;;;;;;;7.88;1.95;;;18.30;61.70;;;;;;5026391;28;45115;-76
2021/12/27 12:22:32;;;;;;;4.78;1.42;;;18.50;62.10;;;;;;5024055;28;46631;-76
2021/12/27 12:25:12;;;;;;;6.60;1.60;;;18.70;63.40;;;;;;5023115;28;45314;-76
2021/12/27 12:27:51;;;;;;;6.70;1.38;;;18.90;62.90;;;;;;5022725;28;45302;-75
2021/12/27 12:30:17;;;;;;;7.57;2.03;;;19.10;63.50;;;;;;5020025;28;45227;-75
2021/12/27 12:33:01;;;;;;;4.00;1.30;;;19.20;64.00;;;;;;5026559;28;46340;-75
2021/12/27 12:35:41;;;;;;;7.60;1.55;;;19.40;65.20;;;;;;5020329;28;45942;-76
2021/12/27 12:38:13;;;;;;;4.80;1.77;;;19.50;65.10;;;;;;5026724;28;45147;-75
2021/12/27 12:40:42;;;;;;;5.65;1.98;;;19.60;65.60;;;;;;5027689;28;45161;-75
2021/12/27 12:43:09;;;;;;;6.03;2.10;;;19.70;65.40;;;;;;5027021;28;48385;-76
2021/12/27 12:45:38;;;;;;;4.63;2.05;;;19.70;65.60;;;;;;5023864;28;45310;-75
2021/12/27 12:48:05;;;;;;;5.22;2.10;;;19.80;65.90;;;;;;5027817;28;45350;-76
2021/12/27 12:50:32;;;;;;;5.25;1.95;;;19.80;65.50;;;;;;5025719;28;45285;-75
2021/12/27 12:53:03;;;;;;;5.03;1.80;;;19.80;65.90;;;;;;5020098;28;45371;-75
2021/12/27 12:55:32;;;;;;;5.38;1.67;;;19.90;65.60;;;;;;5028460;28;45242;-75
2021/12/27 12:58:00;;;;;;;4.00;1.73;;;19.90;65.50;;;;;;5028173;28;45305;-75